sensor_id;sensor_type;location;lat;lon;timestamp;P1;durP1;ratioP1;P2;durP2;ratioP2
22525;SDS011;11429;50.842;4.386;2023-03-12T00:01:24;9.40;;;5.32;;
22525;SDS011;11429;50.842;4.386;2023-03-12T00:03:57;9.35;;;4.72;;
22525;SDS011;11429;50.842;4.386;2023-03-12T00:06:25;11.20;;;5.15;;
22525;SDS011;11429;50.842;4.386;2023-03-12T00:08:51;13.45;;;5.05;;
22525;SDS011;11429;50.842;4.386;2023-03-12T00:11:18;10.10;;;4.88;;
22525;SDS011;11429;50.842;4.386;2023-03-12T00:13:47;9.98;;;4.22;;
22525;SDS011;11429;50.842;4.386;2023-03-12T00:16:15;7.70;;;4.00;;
22525;SDS011;11429;50.842;4.386;2023-03-12T00:18:41;8.75;;;4.03;;
22525;SDS011;11429;50.842;4.386;2023-03-12T00:21:07;13.07;;;4.22;;
22525;SDS011;11429;50.842;4.386;2023-03-12T00:23:33;8.45;;;3.90;;
22525;SDS011;11429;50.842;4.386;2023-03-12T00:26:06;8.23;;;4.22;;
22525;SDS011;11429;50.842;4.386;2023-03-12T00:28:33;7.40;;;3.67;;
22525;SDS011;11429;50.842;4.386;2023-03-12T00:31:00;9.35;;;3.90;;
22525;SDS011;11429;50.842;4.386;2023-03-12T00:33:27;11.73;;;4.07;;
22525;SDS011;11429;50.842;4.386;2023-03-12T00:35:54;9.13;;;3.88;;
22525;SDS011;11429;50.842;4.386;2023-03-12T00:38:20;6.30;;;3.97;;
22525;SDS011;11429;50.842;4.386;2023-03-12T00:40:46;10.57;;;4.10;;
22525;SDS011;11429;50.842;4.386;2023-03-12T00:43:12;9.55;;;4.07;;
22525;SDS011;11429;50.842;4.386;2023-03-12T00:45:39;9.85;;;4.25;;
22525;SDS011;11429;50.842;4.386;2023-03-12T00:48:04;9.55;;;3.85;;
22525;SDS011;11429;50.842;4.386;2023-03-12T00:50:30;11.50;;;4.28;;
22525;SDS011;11429;50.842;4.386;2023-03-12T00:52:56;7.43;;;3.75;;
22525;SDS011;11429;50.842;4.386;2023-03-12T00:55:22;10.77;;;3.90;;
22525;SDS011;11429;50.842;4.386;2023-03-12T00:57:47;10.52;;;3.75;;
22525;SDS011;11429;50.842;4.386;2023-03-12T01:00:13;9.70;;;3.78;;
22525;SDS011;11429;50.842;4.386;2023-03-12T01:02:39;9.98;;;3.78;;
22525;SDS011;11429;50.842;4.386;2023-03-12T01:05:06;11.13;;;3.70;;
22525;SDS011;11429;50.842;4.386;2023-03-12T01:07:33;8.82;;;3.75;;
22525;SDS011;11429;50.842;4.386;2023-03-12T01:10:00;8.05;;;4.38;;
22525;SDS011;11429;50.842;4.386;2023-03-12T01:12:26;10.65;;;3.90;;
22525;SDS011;11429;50.842;4.386;2023-03-12T01:14:51;6.68;;;3.42;;
22525;SDS011;11429;50.842;4.386;2023-03-12T01:17:17;8.38;;;3.60;;
22525;SDS011;11429;50.842;4.386;2023-03-12T01:19:43;4.80;;;2.92;;
22525;SDS011;11429;50.842;4.386;2023-03-12T01:22:11;9.45;;;4.07;;
22525;SDS011;11429;50.842;4.386;2023-03-12T01:24:51;9.48;;;3.30;;
22525;SDS011;11429;50.842;4.386;2023-03-12T01:30:14;6.97;;;2.77;;
22525;SDS011;11429;50.842;4.386;2023-03-12T01:32:40;6.88;;;2.90;;
22525;SDS011;11429;50.842;4.386;2023-03-12T01:35:06;7.28;;;2.83;;
22525;SDS011;11429;50.842;4.386;2023-03-12T01:37:32;6.57;;;3.08;;
22525;SDS011;11429;50.842;4.386;2023-03-12T01:39:58;6.95;;;3.03;;
22525;SDS011;11429;50.842;4.386;2023-03-12T01:42:24;7.18;;;2.63;;
22525;SDS011;11429;50.842;4.386;2023-03-12T01:45:00;7.82;;;3.20;;
22525;SDS011;11429;50.842;4.386;2023-03-12T01:47:27;4.90;;;2.92;;
22525;SDS011;11429;50.842;4.386;2023-03-12T01:49:56;9.55;;;3.20;;
22525;SDS011;11429;50.842;4.386;2023-03-12T01:52:26;6.40;;;2.90;;
22525;SDS011;11429;50.842;4.386;2023-03-12T01:55:02;6.25;;;3.10;;
22525;SDS011;11429;50.842;4.386;2023-03-12T01:57:37;6.85;;;2.85;;
22525;SDS011;11429;50.842;4.386;2023-03-12T02:00:07;6.10;;;2.88;;
22525;SDS011;11429;50.842;4.386;2023-03-12T02:02:36;6.90;;;2.67;;
22525;SDS011;11429;50.842;4.386;2023-03-12T02:05:23;7.05;;;3.00;;
22525;SDS011;11429;50.842;4.386;2023-03-12T02:07:53;6.88;;;3.33;;
22525;SDS011;11429;50.842;4.386;2023-03-12T02:10:20;9.13;;;3.13;;
22525;SDS011;11429;50.842;4.386;2023-03-12T02:12:46;5.30;;;2.50;;
22525;SDS011;11429;50.842;4.386;2023-03-12T02:15:12;8.75;;;3.38;;
22525;SDS011;11429;50.842;4.386;2023-03-12T02:17:38;7.30;;;3.22;;
22525;SDS011;11429;50.842;4.386;2023-03-12T02:22:43;5.07;;;2.30;;
22525;SDS011;11429;50.842;4.386;2023-03-12T02:27:47;8.20;;;3.75;;
22525;SDS011;11429;50.842;4.386;2023-03-12T02:30:12;6.45;;;2.75;;
22525;SDS011;11429;50.842;4.386;2023-03-12T02:32:40;9.30;;;2.92;;
22525;SDS011;11429;50.842;4.386;2023-03-12T02:35:07;6.60;;;2.95;;
22525;SDS011;11429;50.842;4.386;2023-03-12T02:37:33;7.35;;;2.28;;
22525;SDS011;11429;50.842;4.386;2023-03-12T02:40:10;14.85;;;3.53;;
22525;SDS011;11429;50.842;4.386;2023-03-12T02:42:39;9.60;;;3.05;;
22525;SDS011;11429;50.842;4.386;2023-03-12T02:45:05;7.63;;;2.58;;
22525;SDS011;11429;50.842;4.386;2023-03-12T02:47:31;10.48;;;3.15;;
22525;SDS011;11429;50.842;4.386;2023-03-12T02:49:57;6.00;;;2.58;;
22525;SDS011;11429;50.842;4.386;2023-03-12T02:52:23;9.27;;;2.92;;
22525;SDS011;11429;50.842;4.386;2023-03-12T02:54:48;7.20;;;2.75;;
22525;SDS011;11429;50.842;4.386;2023-03-12T02:57:14;8.25;;;2.35;;
22525;SDS011;11429;50.842;4.386;2023-03-12T02:59:40;6.97;;;2.33;;
22525;SDS011;11429;50.842;4.386;2023-03-12T03:02:05;7.93;;;2.75;;
22525;SDS011;11429;50.842;4.386;2023-03-12T03:04:33;6.85;;;2.78;;
22525;SDS011;11429;50.842;4.386;2023-03-12T03:06:59;6.93;;;2.63;;
22525;SDS011;11429;50.842;4.386;2023-03-12T03:09:25;7.60;;;2.70;;
22525;SDS011;11429;50.842;4.386;2023-03-12T03:11:51;8.68;;;3.22;;
22525;SDS011;11429;50.842;4.386;2023-03-12T03:14:17;6.38;;;2.90;;
22525;SDS011;11429;50.842;4.386;2023-03-12T03:16:43;7.00;;;2.70;;
22525;SDS011;11429;50.842;4.386;2023-03-12T03:19:09;5.22;;;2.75;;
22525;SDS011;11429;50.842;4.386;2023-03-12T03:21:35;7.55;;;2.92;;
22525;SDS011;11429;50.842;4.386;2023-03-12T03:24:01;7.75;;;2.67;;
22525;SDS011;11429;50.842;4.386;2023-03-12T03:26:27;7.10;;;2.72;;
22525;SDS011;11429;50.842;4.386;2023-03-12T03:28:53;8.68;;;2.55;;
22525;SDS011;11429;50.842;4.386;2023-03-12T03:31:19;6.82;;;3.00;;
22525;SDS011;11429;50.842;4.386;2023-03-12T03:33:45;7.88;;;3.22;;
22525;SDS011;11429;50.842;4.386;2023-03-12T03:36:11;7.35;;;2.83;;
22525;SDS011;11429;50.842;4.386;2023-03-12T03:38:39;8.68;;;2.80;;
22525;SDS011;11429;50.842;4.386;2023-03-12T03:41:05;9.02;;;3.20;;
22525;SDS011;11429;50.842;4.386;2023-03-12T03:43:31;9.02;;;3.42;;
22525;SDS011;11429;50.842;4.386;2023-03-12T03:45:57;5.25;;;3.22;;
22525;SDS011;11429;50.842;4.386;2023-03-12T03:48:24;6.05;;;3.20;;
22525;SDS011;11429;50.842;4.386;2023-03-12T03:50:50;7.60;;;3.20;;
22525;SDS011;11429;50.842;4.386;2023-03-12T03:53:16;7.75;;;3.00;;
22525;SDS011;11429;50.842;4.386;2023-03-12T03:55:43;6.40;;;3.03;;
22525;SDS011;11429;50.842;4.386;2023-03-12T03:58:10;7.82;;;3.40;;
22525;SDS011;11429;50.842;4.386;2023-03-12T04:00:36;8.07;;;3.40;;
22525;SDS011;11429;50.842;4.386;2023-03-12T04:03:01;8.93;;;3.50;;
22525;SDS011;11429;50.842;4.386;2023-03-12T04:05:27;8.10;;;3.45;;
22525;SDS011;11429;50.842;4.386;2023-03-12T04:07:53;8.13;;;3.70;;
22525;SDS011;11429;50.842;4.386;2023-03-12T04:10:20;6.43;;;3.60;;
22525;SDS011;11429;50.842;4.386;2023-03-12T04:12:48;10.75;;;4.30;;
22525;SDS011;11429;50.842;4.386;2023-03-12T04:15:13;12.07;;;4.00;;
22525;SDS011;11429;50.842;4.386;2023-03-12T04:17:39;6.95;;;3.95;;
22525;SDS011;11429;50.842;4.386;2023-03-12T04:20:05;8.93;;;3.33;;
22525;SDS011;11429;50.842;4.386;2023-03-12T04:22:33;9.55;;;4.50;;
22525;SDS011;11429;50.842;4.386;2023-03-12T04:24:59;9.10;;;4.63;;
22525;SDS011;11429;50.842;4.386;2023-03-12T04:27:24;9.20;;;4.35;;
22525;SDS011;11429;50.842;4.386;2023-03-12T04:29:50;10.25;;;4.20;;
22525;SDS011;11429;50.842;4.386;2023-03-12T04:32:16;12.65;;;4.53;;
22525;SDS011;11429;50.842;4.386;2023-03-12T04:34:41;7.00;;;3.97;;
22525;SDS011;11429;50.842;4.386;2023-03-12T04:37:08;7.82;;;4.47;;
22525;SDS011;11429;50.842;4.386;2023-03-12T04:39:38;7.45;;;4.07;;
22525;SDS011;11429;50.842;4.386;2023-03-12T04:42:05;7.82;;;4.50;;
22525;SDS011;11429;50.842;4.386;2023-03-12T04:44:31;12.02;;;4.57;;
22525;SDS011;11429;50.842;4.386;2023-03-12T04:46:56;13.23;;;5.20;;
22525;SDS011;11429;50.842;4.386;2023-03-12T04:49:22;11.23;;;5.03;;
22525;SDS011;11429;50.842;4.386;2023-03-12T04:51:48;9.60;;;5.30;;
22525;SDS011;11429;50.842;4.386;2023-03-12T04:54:13;12.13;;;5.20;;
22525;SDS011;11429;50.842;4.386;2023-03-12T04:56:39;10.93;;;5.28;;
22525;SDS011;11429;50.842;4.386;2023-03-12T04:59:05;11.25;;;5.45;;
22525;SDS011;11429;50.842;4.386;2023-03-12T05:01:31;12.18;;;5.30;;
22525;SDS011;11429;50.842;4.386;2023-03-12T05:03:59;10.88;;;5.28;;
22525;SDS011;11429;50.842;4.386;2023-03-12T05:06:26;20.15;;;5.55;;
22525;SDS011;11429;50.842;4.386;2023-03-12T05:08:52;13.52;;;6.35;;
22525;SDS011;11429;50.842;4.386;2023-03-12T05:11:17;10.10;;;6.35;;
22525;SDS011;11429;50.842;4.386;2023-03-12T05:13:44;11.00;;;6.03;;
22525;SDS011;11429;50.842;4.386;2023-03-12T05:16:11;9.55;;;6.50;;
22525;SDS011;11429;50.842;4.386;2023-03-12T05:18:37;9.98;;;6.32;;
22525;SDS011;11429;50.842;4.386;2023-03-12T05:21:07;9.30;;;6.53;;
22525;SDS011;11429;50.842;4.386;2023-03-12T05:23:35;12.30;;;7.10;;
22525;SDS011;11429;50.842;4.386;2023-03-12T05:26:03;14.48;;;7.20;;
22525;SDS011;11429;50.842;4.386;2023-03-12T05:28:30;11.32;;;7.55;;
22525;SDS011;11429;50.842;4.386;2023-03-12T05:30:56;12.30;;;7.57;;
22525;SDS011;11429;50.842;4.386;2023-03-12T05:33:24;11.27;;;6.82;;
22525;SDS011;11429;50.842;4.386;2023-03-12T05:35:51;15.65;;;7.65;;
22525;SDS011;11429;50.842;4.386;2023-03-12T05:38:16;11.93;;;7.60;;
22525;SDS011;11429;50.842;4.386;2023-03-12T05:40:42;11.15;;;7.90;;
22525;SDS011;11429;50.842;4.386;2023-03-12T05:43:14;13.70;;;8.85;;
22525;SDS011;11429;50.842;4.386;2023-03-12T05:45:40;13.75;;;8.90;;
22525;SDS011;11429;50.842;4.386;2023-03-12T05:48:06;17.02;;;8.75;;
22525;SDS011;11429;50.842;4.386;2023-03-12T05:50:31;15.93;;;8.65;;
22525;SDS011;11429;50.842;4.386;2023-03-12T05:52:57;12.90;;;8.75;;
22525;SDS011;11429;50.842;4.386;2023-03-12T05:55:22;13.52;;;9.25;;
22525;SDS011;11429;50.842;4.386;2023-03-12T05:57:48;18.10;;;9.13;;
22525;SDS011;11429;50.842;4.386;2023-03-12T06:00:14;13.13;;;9.35;;
22525;SDS011;11429;50.842;4.386;2023-03-12T06:02:40;15.40;;;9.88;;
22525;SDS011;11429;50.842;4.386;2023-03-12T06:05:07;20.50;;;11.35;;
22525;SDS011;11429;50.842;4.386;2023-03-12T06:07:34;15.00;;;10.63;;
22525;SDS011;11429;50.842;4.386;2023-03-12T06:10:00;16.42;;;11.07;;
22525;SDS011;11429;50.842;4.386;2023-03-12T06:12:25;14.02;;;10.55;;
22525;SDS011;11429;50.842;4.386;2023-03-12T06:14:51;16.75;;;11.45;;
22525;SDS011;11429;50.842;4.386;2023-03-12T06:17:18;17.00;;;12.38;;
22525;SDS011;11429;50.842;4.386;2023-03-12T06:19:43;16.27;;;12.18;;
22525;SDS011;11429;50.842;4.386;2023-03-12T06:22:09;20.27;;;12.05;;
22525;SDS011;11429;50.842;4.386;2023-03-12T06:24:35;18.05;;;13.82;;
22525;SDS011;11429;50.842;4.386;2023-03-12T06:27:01;17.40;;;12.60;;
22525;SDS011;11429;50.842;4.386;2023-03-12T06:29:27;16.25;;;12.45;;
22525;SDS011;11429;50.842;4.386;2023-03-12T06:31:52;17.67;;;12.32;;
22525;SDS011;11429;50.842;4.386;2023-03-12T06:34:19;18.05;;;12.95;;
22525;SDS011;11429;50.842;4.386;2023-03-12T06:36:45;17.05;;;12.60;;
22525;SDS011;11429;50.842;4.386;2023-03-12T06:39:11;17.90;;;12.43;;
22525;SDS011;11429;50.842;4.386;2023-03-12T06:41:37;16.17;;;12.93;;
22525;SDS011;11429;50.842;4.386;2023-03-12T06:44:02;17.38;;;13.32;;
22525;SDS011;11429;50.842;4.386;2023-03-12T06:46:30;17.40;;;12.30;;
22525;SDS011;11429;50.842;4.386;2023-03-12T06:48:56;19.20;;;13.27;;
22525;SDS011;11429;50.842;4.386;2023-03-12T06:51:21;21.45;;;13.13;;
22525;SDS011;11429;50.842;4.386;2023-03-12T06:53:47;19.88;;;12.85;;
22525;SDS011;11429;50.842;4.386;2023-03-12T06:56:13;20.65;;;14.32;;
22525;SDS011;11429;50.842;4.386;2023-03-12T06:58:39;22.55;;;15.02;;
22525;SDS011;11429;50.842;4.386;2023-03-12T07:01:05;22.30;;;14.88;;
22525;SDS011;11429;50.842;4.386;2023-03-12T07:03:31;20.77;;;13.85;;
22525;SDS011;11429;50.842;4.386;2023-03-12T07:05:57;24.58;;;15.65;;
22525;SDS011;11429;50.842;4.386;2023-03-12T07:08:24;21.60;;;15.10;;
22525;SDS011;11429;50.842;4.386;2023-03-12T07:10:50;20.27;;;13.90;;
22525;SDS011;11429;50.842;4.386;2023-03-12T07:13:16;25.02;;;14.90;;
22525;SDS011;11429;50.842;4.386;2023-03-12T07:15:41;22.70;;;15.57;;
22525;SDS011;11429;50.842;4.386;2023-03-12T07:18:09;22.98;;;15.25;;
22525;SDS011;11429;50.842;4.386;2023-03-12T07:20:36;23.05;;;14.98;;
22525;SDS011;11429;50.842;4.386;2023-03-12T07:23:04;24.77;;;15.38;;
22525;SDS011;11429;50.842;4.386;2023-03-12T07:25:30;25.80;;;15.40;;
22525;SDS011;11429;50.842;4.386;2023-03-12T07:27:58;27.80;;;14.98;;
22525;SDS011;11429;50.842;4.386;2023-03-12T07:30:24;22.83;;;14.07;;
22525;SDS011;11429;50.842;4.386;2023-03-12T07:32:50;29.77;;;16.52;;
22525;SDS011;11429;50.842;4.386;2023-03-12T07:35:15;31.55;;;15.25;;
22525;SDS011;11429;50.842;4.386;2023-03-12T07:37:41;31.25;;;16.55;;
22525;SDS011;11429;50.842;4.386;2023-03-12T07:40:07;26.23;;;15.73;;
22525;SDS011;11429;50.842;4.386;2023-03-12T07:42:34;30.13;;;16.23;;
22525;SDS011;11429;50.842;4.386;2023-03-12T07:45:00;32.55;;;16.17;;
22525;SDS011;11429;50.842;4.386;2023-03-12T07:47:26;32.78;;;16.23;;
22525;SDS011;11429;50.842;4.386;2023-03-12T07:49:52;35.85;;;16.80;;
22525;SDS011;11429;50.842;4.386;2023-03-12T07:52:18;36.85;;;16.05;;
22525;SDS011;11429;50.842;4.386;2023-03-12T07:54:44;37.22;;;16.77;;
22525;SDS011;11429;50.842;4.386;2023-03-12T07:57:10;38.65;;;16.42;;
22525;SDS011;11429;50.842;4.386;2023-03-12T07:59:35;45.72;;;17.10;;
22525;SDS011;11429;50.842;4.386;2023-03-12T08:02:01;45.90;;;18.80;;
22525;SDS011;11429;50.842;4.386;2023-03-12T08:04:27;55.00;;;18.25;;
22525;SDS011;11429;50.842;4.386;2023-03-12T08:06:52;50.53;;;17.63;;
22525;SDS011;11429;50.842;4.386;2023-03-12T08:09:18;54.42;;;18.58;;
22525;SDS011;11429;50.842;4.386;2023-03-12T08:11:44;59.75;;;19.27;;
22525;SDS011;11429;50.842;4.386;2023-03-12T08:14:10;59.78;;;20.20;;
22525;SDS011;11429;50.842;4.386;2023-03-12T08:16:36;69.60;;;19.35;;
22525;SDS011;11429;50.842;4.386;2023-03-12T08:19:01;72.15;;;21.58;;
22525;SDS011;11429;50.842;4.386;2023-03-12T08:21:27;63.90;;;21.30;;
22525;SDS011;11429;50.842;4.386;2023-03-12T08:23:53;68.80;;;21.10;;
22525;SDS011;11429;50.842;4.386;2023-03-12T08:26:18;67.43;;;21.25;;
22525;SDS011;11429;50.842;4.386;2023-03-12T08:28:44;72.10;;;23.02;;
22525;SDS011;11429;50.842;4.386;2023-03-12T08:31:10;78.40;;;22.10;;
22525;SDS011;11429;50.842;4.386;2023-03-12T08:33:35;65.65;;;20.98;;
22525;SDS011;11429;50.842;4.386;2023-03-12T08:36:05;74.50;;;20.50;;
22525;SDS011;11429;50.842;4.386;2023-03-12T08:38:31;69.20;;;21.20;;
22525;SDS011;11429;50.842;4.386;2023-03-12T08:40:57;81.88;;;20.77;;
22525;SDS011;11429;50.842;4.386;2023-03-12T08:43:24;67.05;;;18.90;;
22525;SDS011;11429;50.842;4.386;2023-03-12T08:45:54;68.97;;;20.00;;
22525;SDS011;11429;50.842;4.386;2023-03-12T08:48:20;74.18;;;18.83;;
22525;SDS011;11429;50.842;4.386;2023-03-12T08:50:46;70.57;;;17.60;;
22525;SDS011;11429;50.842;4.386;2023-03-12T08:53:12;66.57;;;17.52;;
22525;SDS011;11429;50.842;4.386;2023-03-12T08:55:38;51.83;;;15.77;;
22525;SDS011;11429;50.842;4.386;2023-03-12T08:58:03;69.07;;;16.05;;
22525;SDS011;11429;50.842;4.386;2023-03-12T09:00:29;55.67;;;15.48;;
22525;SDS011;11429;50.842;4.386;2023-03-12T09:02:55;59.50;;;15.77;;
22525;SDS011;11429;50.842;4.386;2023-03-12T09:05:23;52.58;;;13.77;;
22525;SDS011;11429;50.842;4.386;2023-03-12T09:07:57;65.68;;;14.90;;
22525;SDS011;11429;50.842;4.386;2023-03-12T09:10:36;53.03;;;14.88;;
22525;SDS011;11429;50.842;4.386;2023-03-12T09:15:57;57.10;;;13.48;;
22525;SDS011;11429;50.842;4.386;2023-03-12T09:19:12;50.67;;;13.27;;
22525;SDS011;11429;50.842;4.386;2023-03-12T09:21:20;57.45;;;14.05;;
22525;SDS011;11429;50.842;4.386;2023-03-12T09:23:46;58.55;;;11.85;;
22525;SDS011;11429;50.842;4.386;2023-03-12T09:26:12;50.08;;;12.25;;
22525;SDS011;11429;50.842;4.386;2023-03-12T09:28:41;49.70;;;11.73;;
22525;SDS011;11429;50.842;4.386;2023-03-12T09:34:20;55.67;;;11.43;;
22525;SDS011;11429;50.842;4.386;2023-03-12T09:37:21;45.70;;;10.43;;
22525;SDS011;11429;50.842;4.386;2023-03-12T09:39:58;52.00;;;9.68;;
22525;SDS011;11429;50.842;4.386;2023-03-12T09:42:39;51.78;;;10.60;;
22525;SDS011;11429;50.842;4.386;2023-03-12T09:45:57;48.30;;;9.80;;
22525;SDS011;11429;50.842;4.386;2023-03-12T09:50:49;47.78;;;10.18;;
22525;SDS011;11429;50.842;4.386;2023-03-12T09:53:27;48.95;;;10.40;;
22525;SDS011;11429;50.842;4.386;2023-03-12T09:55:56;47.58;;;9.52;;
22525;SDS011;11429;50.842;4.386;2023-03-12T09:58:33;51.42;;;9.23;;
22525;SDS011;11429;50.842;4.386;2023-03-12T10:06:25;37.75;;;7.63;;
22525;SDS011;11429;50.842;4.386;2023-03-12T10:12:06;46.92;;;8.80;;
22525;SDS011;11429;50.842;4.386;2023-03-12T10:26:17;42.45;;;7.70;;
22525;SDS011;11429;50.842;4.386;2023-03-12T10:28:50;50.28;;;10.52;;
22525;SDS011;11429;50.842;4.386;2023-03-12T10:31:22;44.85;;;8.00;;
22525;SDS011;11429;50.842;4.386;2023-03-12T10:33:54;50.95;;;9.18;;
22525;SDS011;11429;50.842;4.386;2023-03-12T10:36:27;39.25;;;8.00;;
22525;SDS011;11429;50.842;4.386;2023-03-12T10:39:02;46.63;;;8.85;;
22525;SDS011;11429;50.842;4.386;2023-03-12T10:41:45;36.47;;;8.50;;
22525;SDS011;11429;50.842;4.386;2023-03-12T10:44:19;37.70;;;8.90;;
22525;SDS011;11429;50.842;4.386;2023-03-12T10:46:58;43.75;;;8.57;;
22525;SDS011;11429;50.842;4.386;2023-03-12T10:49:40;37.30;;;8.80;;
22525;SDS011;11429;50.842;4.386;2023-03-12T10:54:40;42.17;;;9.27;;
22525;SDS011;11429;50.842;4.386;2023-03-12T10:57:09;43.30;;;9.85;;
22525;SDS011;11429;50.842;4.386;2023-03-12T10:59:37;42.85;;;8.73;;
22525;SDS011;11429;50.842;4.386;2023-03-12T11:04:51;35.15;;;9.02;;
22525;SDS011;11429;50.842;4.386;2023-03-12T11:07:18;41.70;;;9.45;;
22525;SDS011;11429;50.842;4.386;2023-03-12T11:10:02;43.72;;;10.07;;
22525;SDS011;11429;50.842;4.386;2023-03-12T11:12:32;35.72;;;8.18;;
22525;SDS011;11429;50.842;4.386;2023-03-12T11:20:53;42.53;;;9.63;;
22525;SDS011;11429;50.842;4.386;2023-03-12T11:23:24;44.45;;;9.40;;
22525;SDS011;11429;50.842;4.386;2023-03-12T11:25:53;46.78;;;9.82;;
22525;SDS011;11429;50.842;4.386;2023-03-12T11:28:31;43.05;;;9.82;;
22525;SDS011;11429;50.842;4.386;2023-03-12T11:31:07;37.25;;;9.88;;
22525;SDS011;11429;50.842;4.386;2023-03-12T11:33:35;32.38;;;7.70;;
22525;SDS011;11429;50.842;4.386;2023-03-12T11:38:43;38.92;;;9.68;;
22525;SDS011;11429;50.842;4.386;2023-03-12T11:41:24;37.17;;;8.95;;
22525;SDS011;11429;50.842;4.386;2023-03-12T11:44:17;45.25;;;9.90;;
22525;SDS011;11429;50.842;4.386;2023-03-12T11:52:31;42.00;;;9.35;;
22525;SDS011;11429;50.842;4.386;2023-03-12T11:59:13;39.08;;;9.45;;
22525;SDS011;11429;50.842;4.386;2023-03-12T12:15:03;40.38;;;9.40;;
22525;SDS011;11429;50.842;4.386;2023-03-12T12:29:19;37.85;;;8.45;;
22525;SDS011;11429;50.842;4.386;2023-03-12T12:32:04;40.63;;;8.15;;
22525;SDS011;11429;50.842;4.386;2023-03-12T12:37:52;43.05;;;7.65;;
22525;SDS011;11429;50.842;4.386;2023-03-12T12:40:47;37.83;;;8.07;;
22525;SDS011;11429;50.842;4.386;2023-03-12T12:45:59;29.10;;;6.18;;
22525;SDS011;11429;50.842;4.386;2023-03-12T12:48:57;32.22;;;7.15;;
22525;SDS011;11429;50.842;4.386;2023-03-12T12:51:29;28.75;;;6.18;;
22525;SDS011;11429;50.842;4.386;2023-03-12T12:54:00;32.78;;;7.32;;
22525;SDS011;11429;50.842;4.386;2023-03-12T13:01:58;31.75;;;7.38;;
22525;SDS011;11429;50.842;4.386;2023-03-12T13:04:35;29.90;;;6.82;;
22525;SDS011;11429;50.842;4.386;2023-03-12T13:07:04;32.17;;;7.63;;
22525;SDS011;11429;50.842;4.386;2023-03-12T13:09:49;33.72;;;7.47;;
22525;SDS011;11429;50.842;4.386;2023-03-12T13:14:55;38.35;;;7.82;;
22525;SDS011;11429;50.842;4.386;2023-03-12T13:19:58;31.95;;;7.20;;
22525;SDS011;11429;50.842;4.386;2023-03-12T13:25:22;35.78;;;6.93;;
22525;SDS011;11429;50.842;4.386;2023-03-12T13:28:02;41.10;;;7.82;;
22525;SDS011;11429;50.842;4.386;2023-03-12T13:30:54;31.33;;;7.10;;
22525;SDS011;11429;50.842;4.386;2023-03-12T13:41:48;33.90;;;6.60;;
22525;SDS011;11429;50.842;4.386;2023-03-12T13:46:48;33.72;;;7.63;;
22525;SDS011;11429;50.842;4.386;2023-03-12T13:49:34;33.53;;;6.95;;
22525;SDS011;11429;50.842;4.386;2023-03-12T13:54:42;31.98;;;6.93;;
22525;SDS011;11429;50.842;4.386;2023-03-12T13:57:12;36.08;;;7.32;;
22525;SDS011;11429;50.842;4.386;2023-03-12T13:59:45;32.90;;;7.20;;
22525;SDS011;11429;50.842;4.386;2023-03-12T14:02:19;34.92;;;6.75;;
22525;SDS011;11429;50.842;4.386;2023-03-12T14:05:07;33.10;;;6.75;;
22525;SDS011;11429;50.842;4.386;2023-03-12T14:13:07;33.03;;;6.82;;
22525;SDS011;11429;50.842;4.386;2023-03-12T14:15:55;28.80;;;6.53;;
22525;SDS011;11429;50.842;4.386;2023-03-12T14:18:34;31.75;;;5.72;;
22525;SDS011;11429;50.842;4.386;2023-03-12T14:21:06;34.47;;;6.28;;
22525;SDS011;11429;50.842;4.386;2023-03-12T14:23:38;32.22;;;5.38;;
22525;SDS011;11429;50.842;4.386;2023-03-12T14:26:22;32.67;;;6.32;;
22525;SDS011;11429;50.842;4.386;2023-03-12T14:29:01;20.25;;;4.40;;
22525;SDS011;11429;50.842;4.386;2023-03-12T14:31:39;31.58;;;5.78;;
22525;SDS011;11429;50.842;4.386;2023-03-12T14:34:19;25.88;;;5.72;;
22525;SDS011;11429;50.842;4.386;2023-03-12T14:39:38;30.10;;;6.53;;
22525;SDS011;11429;50.842;4.386;2023-03-12T14:42:08;29.73;;;6.00;;
22525;SDS011;11429;50.842;4.386;2023-03-12T14:44:35;26.05;;;5.40;;
22525;SDS011;11429;50.842;4.386;2023-03-12T14:47:09;28.73;;;5.22;;
22525;SDS011;11429;50.842;4.386;2023-03-12T14:49:45;24.75;;;5.72;;
22525;SDS011;11429;50.842;4.386;2023-03-12T14:52:22;27.33;;;5.72;;
22525;SDS011;11429;50.842;4.386;2023-03-12T14:57:23;27.38;;;5.10;;
22525;SDS011;11429;50.842;4.386;2023-03-12T14:59:53;29.60;;;5.65;;
22525;SDS011;11429;50.842;4.386;2023-03-12T15:02:23;34.05;;;6.38;;
22525;SDS011;11429;50.842;4.386;2023-03-12T15:04:51;27.30;;;5.53;;
22525;SDS011;11429;50.842;4.386;2023-03-12T15:07:21;32.53;;;6.00;;
22525;SDS011;11429;50.842;4.386;2023-03-12T15:09:51;25.60;;;4.70;;
22525;SDS011;11429;50.842;4.386;2023-03-12T15:14:43;23.25;;;5.03;;
22525;SDS011;11429;50.842;4.386;2023-03-12T15:17:19;30.88;;;6.00;;
22525;SDS011;11429;50.842;4.386;2023-03-12T15:19:46;25.33;;;5.55;;
22525;SDS011;11429;50.842;4.386;2023-03-12T15:22:18;23.77;;;5.97;;
22525;SDS011;11429;50.842;4.386;2023-03-12T15:24:47;26.13;;;6.45;;
22525;SDS011;11429;50.842;4.386;2023-03-12T15:27:20;32.15;;;6.35;;
22525;SDS011;11429;50.842;4.386;2023-03-12T15:29:50;26.00;;;5.18;;
22525;SDS011;11429;50.842;4.386;2023-03-12T15:32:17;24.40;;;5.43;;
22525;SDS011;11429;50.842;4.386;2023-03-12T15:34:45;29.50;;;5.35;;
22525;SDS011;11429;50.842;4.386;2023-03-12T15:37:25;30.48;;;6.30;;
22525;SDS011;11429;50.842;4.386;2023-03-12T15:40:03;32.15;;;5.68;;
22525;SDS011;11429;50.842;4.386;2023-03-12T15:42:37;32.47;;;6.88;;
22525;SDS011;11429;50.842;4.386;2023-03-12T15:45:05;26.85;;;5.70;;
22525;SDS011;11429;50.842;4.386;2023-03-12T15:47:45;26.00;;;5.32;;
22525;SDS011;11429;50.842;4.386;2023-03-12T15:50:33;27.00;;;5.25;;
22525;SDS011;11429;50.842;4.386;2023-03-12T15:55:36;32.67;;;6.07;;
22525;SDS011;11429;50.842;4.386;2023-03-12T15:58:03;29.65;;;5.82;;
22525;SDS011;11429;50.842;4.386;2023-03-12T16:00:48;27.00;;;5.47;;
22525;SDS011;11429;50.842;4.386;2023-03-12T16:03:16;33.28;;;5.53;;
22525;SDS011;11429;50.842;4.386;2023-03-12T16:05:43;31.17;;;5.57;;
22525;SDS011;11429;50.842;4.386;2023-03-12T16:08:15;23.85;;;5.07;;
22525;SDS011;11429;50.842;4.386;2023-03-12T16:10:42;29.13;;;6.40;;
22525;SDS011;11429;50.842;4.386;2023-03-12T16:13:09;27.42;;;5.72;;
22525;SDS011;11429;50.842;4.386;2023-03-12T16:15:38;33.08;;;6.10;;
22525;SDS011;11429;50.842;4.386;2023-03-12T16:18:04;29.13;;;5.88;;
22525;SDS011;11429;50.842;4.386;2023-03-12T16:20:40;30.50;;;5.90;;
22525;SDS011;11429;50.842;4.386;2023-03-12T16:23:06;33.42;;;6.13;;
22525;SDS011;11429;50.842;4.386;2023-03-12T16:25:32;35.65;;;7.03;;
22525;SDS011;11429;50.842;4.386;2023-03-12T16:27:59;24.13;;;6.13;;
22525;SDS011;11429;50.842;4.386;2023-03-12T16:30:28;34.65;;;6.55;;
22525;SDS011;11429;50.842;4.386;2023-03-12T16:32:55;32.15;;;6.05;;
22525;SDS011;11429;50.842;4.386;2023-03-12T16:35:22;24.63;;;6.03;;
22525;SDS011;11429;50.842;4.386;2023-03-12T16:37:48;29.48;;;6.13;;
22525;SDS011;11429;50.842;4.386;2023-03-12T16:40:14;34.80;;;5.90;;
22525;SDS011;11429;50.842;4.386;2023-03-12T16:42:42;30.35;;;5.53;;
22525;SDS011;11429;50.842;4.386;2023-03-12T16:45:11;33.72;;;5.97;;
22525;SDS011;11429;50.842;4.386;2023-03-12T16:47:38;28.67;;;6.13;;
22525;SDS011;11429;50.842;4.386;2023-03-12T16:50:11;30.40;;;5.70;;
22525;SDS011;11429;50.842;4.386;2023-03-12T16:52:45;36.72;;;6.30;;
22525;SDS011;11429;50.842;4.386;2023-03-12T16:55:11;26.17;;;5.50;;
22525;SDS011;11429;50.842;4.386;2023-03-12T16:57:50;28.67;;;5.72;;
22525;SDS011;11429;50.842;4.386;2023-03-12T17:00:19;33.55;;;6.63;;
22525;SDS011;11429;50.842;4.386;2023-03-12T17:02:56;29.40;;;6.00;;